sensor_id;sensor_type;location;lat;lon;timestamp;P1;durP1;ratioP1;P2;durP2;ratioP2
75793;SDS011;64418;47.536;19.074;2024-01-06T00:01:51;28.95;;;15.07;;
75793;SDS011;64418;47.536;19.074;2024-01-06T00:04:17;31.85;;;16.02;;
75793;SDS011;64418;47.536;19.074;2024-01-06T00:06:47;30.05;;;15.90;;
75793;SDS011;64418;47.536;19.074;2024-01-06T00:09:17;29.45;;;16.10;;
75793;SDS011;64418;47.536;19.074;2024-01-06T00:11:43;26.20;;;15.00;;
75793;SDS011;64418;47.536;19.074;2024-01-06T00:14:09;29.33;;;16.02;;
75793;SDS011;64418;47.536;19.074;2024-01-06T00:16:35;28.80;;;14.82;;
75793;SDS011;64418;47.536;19.074;2024-01-06T00:19:01;25.83;;;15.30;;
75793;SDS011;64418;47.536;19.074;2024-01-06T00:21:26;27.15;;;14.32;;
75793;SDS011;64418;47.536;19.074;2024-01-06T00:23:54;27.50;;;14.48;;
75793;SDS011;64418;47.536;19.074;2024-01-06T00:26:21;28.73;;;15.07;;
75793;SDS011;64418;47.536;19.074;2024-01-06T00:28:48;26.87;;;14.82;;
75793;SDS011;64418;47.536;19.074;2024-01-06T00:31:13;28.08;;;15.75;;
75793;SDS011;64418;47.536;19.074;2024-01-06T00:33:48;29.42;;;15.60;;
75793;SDS011;64418;47.536;19.074;2024-01-06T00:36:19;31.95;;;15.82;;
75793;SDS011;64418;47.536;19.074;2024-01-06T00:38:45;30.90;;;14.80;;
75793;SDS011;64418;47.536;19.074;2024-01-06T00:41:13;26.67;;;15.60;;
75793;SDS011;64418;47.536;19.074;2024-01-06T00:43:39;32.30;;;15.63;;
75793;SDS011;64418;47.536;19.074;2024-01-06T00:46:07;27.25;;;15.43;;
75793;SDS011;64418;47.536;19.074;2024-01-06T00:48:33;28.55;;;14.95;;
75793;SDS011;64418;47.536;19.074;2024-01-06T00:50:58;29.03;;;15.93;;
75793;SDS011;64418;47.536;19.074;2024-01-06T00:53:24;24.50;;;14.50;;
75793;SDS011;64418;47.536;19.074;2024-01-06T00:55:51;31.92;;;16.25;;
75793;SDS011;64418;47.536;19.074;2024-01-06T00:58:18;28.07;;;14.90;;
75793;SDS011;64418;47.536;19.074;2024-01-06T01:00:44;31.33;;;15.30;;
75793;SDS011;64418;47.536;19.074;2024-01-06T01:03:10;29.08;;;14.93;;
75793;SDS011;64418;47.536;19.074;2024-01-06T01:05:37;27.83;;;15.70;;
75793;SDS011;64418;47.536;19.074;2024-01-06T01:08:03;30.95;;;15.82;;
75793;SDS011;64418;47.536;19.074;2024-01-06T01:10:29;29.47;;;15.07;;
75793;SDS011;64418;47.536;19.074;2024-01-06T01:12:55;29.65;;;16.17;;
75793;SDS011;64418;47.536;19.074;2024-01-06T01:15:23;29.45;;;15.10;;
75793;SDS011;64418;47.536;19.074;2024-01-06T01:17:49;31.05;;;15.70;;
75793;SDS011;64418;47.536;19.074;2024-01-06T01:20:15;32.23;;;16.37;;
75793;SDS011;64418;47.536;19.074;2024-01-06T01:22:41;27.58;;;15.55;;
75793;SDS011;64418;47.536;19.074;2024-01-06T01:25:07;33.35;;;16.73;;
75793;SDS011;64418;47.536;19.074;2024-01-06T01:27:33;31.67;;;16.87;;
75793;SDS011;64418;47.536;19.074;2024-01-06T01:29:59;31.03;;;16.10;;
75793;SDS011;64418;47.536;19.074;2024-01-06T01:32:29;31.13;;;15.70;;
75793;SDS011;64418;47.536;19.074;2024-01-06T01:34:55;31.00;;;16.08;;
75793;SDS011;64418;47.536;19.074;2024-01-06T01:37:21;32.88;;;15.50;;
75793;SDS011;64418;47.536;19.074;2024-01-06T01:39:47;28.33;;;16.52;;
75793;SDS011;64418;47.536;19.074;2024-01-06T01:42:13;32.87;;;15.53;;
75793;SDS011;64418;47.536;19.074;2024-01-06T01:44:38;28.45;;;15.05;;
75793;SDS011;64418;47.536;19.074;2024-01-06T01:47:05;29.52;;;15.60;;
75793;SDS011;64418;47.536;19.074;2024-01-06T01:49:34;31.57;;;14.37;;
75793;SDS011;64418;47.536;19.074;2024-01-06T01:52:03;25.95;;;15.40;;
75793;SDS011;64418;47.536;19.074;2024-01-06T01:54:31;30.48;;;15.57;;
75793;SDS011;64418;47.536;19.074;2024-01-06T01:56:57;28.40;;;15.32;;
75793;SDS011;64418;47.536;19.074;2024-01-06T01:59:24;32.22;;;15.98;;
75793;SDS011;64418;47.536;19.074;2024-01-06T02:01:50;30.53;;;15.17;;
75793;SDS011;64418;47.536;19.074;2024-01-06T02:04:17;27.83;;;15.73;;
75793;SDS011;64418;47.536;19.074;2024-01-06T02:06:45;27.62;;;16.08;;
75793;SDS011;64418;47.536;19.074;2024-01-06T02:09:11;32.17;;;15.75;;
75793;SDS011;64418;47.536;19.074;2024-01-06T02:11:37;30.58;;;14.95;;
75793;SDS011;64418;47.536;19.074;2024-01-06T02:14:03;28.57;;;15.07;;
75793;SDS011;64418;47.536;19.074;2024-01-06T02:16:29;28.90;;;16.10;;
75793;SDS011;64418;47.536;19.074;2024-01-06T02:18:55;31.77;;;15.73;;
75793;SDS011;64418;47.536;19.074;2024-01-06T02:21:21;29.85;;;15.82;;
75793;SDS011;64418;47.536;19.074;2024-01-06T02:23:54;35.10;;;16.07;;
75793;SDS011;64418;47.536;19.074;2024-01-06T02:26:20;29.77;;;15.40;;
75793;SDS011;64418;47.536;19.074;2024-01-06T02:28:46;28.27;;;15.77;;
75793;SDS011;64418;47.536;19.074;2024-01-06T02:31:11;29.98;;;15.50;;
75793;SDS011;64418;47.536;19.074;2024-01-06T02:33:38;30.80;;;15.57;;
75793;SDS011;64418;47.536;19.074;2024-01-06T02:36:04;26.80;;;15.60;;
75793;SDS011;64418;47.536;19.074;2024-01-06T02:38:31;32.30;;;15.88;;
75793;SDS011;64418;47.536;19.074;2024-01-06T02:40:59;28.20;;;15.18;;
75793;SDS011;64418;47.536;19.074;2024-01-06T02:43:24;29.23;;;15.57;;
75793;SDS011;64418;47.536;19.074;2024-01-06T02:45:50;27.10;;;14.90;;
75793;SDS011;64418;47.536;19.074;2024-01-06T02:48:17;29.52;;;16.08;;
75793;SDS011;64418;47.536;19.074;2024-01-06T02:50:43;29.40;;;14.85;;
75793;SDS011;64418;47.536;19.074;2024-01-06T02:53:09;27.85;;;14.35;;
75793;SDS011;64418;47.536;19.074;2024-01-06T02:55:34;29.97;;;15.13;;
75793;SDS011;64418;47.536;19.074;2024-01-06T02:58:03;27.13;;;14.75;;
75793;SDS011;64418;47.536;19.074;2024-01-06T03:00:29;29.37;;;15.05;;
75793;SDS011;64418;47.536;19.074;2024-01-06T03:02:55;27.45;;;15.85;;
75793;SDS011;64418;47.536;19.074;2024-01-06T03:05:21;30.13;;;15.30;;
75793;SDS011;64418;47.536;19.074;2024-01-06T03:07:46;28.55;;;15.20;;
75793;SDS011;64418;47.536;19.074;2024-01-06T03:10:12;27.42;;;15.45;;
75793;SDS011;64418;47.536;19.074;2024-01-06T03:12:38;27.70;;;14.90;;
75793;SDS011;64418;47.536;19.074;2024-01-06T03:15:07;31.30;;;15.30;;
75793;SDS011;64418;47.536;19.074;2024-01-06T03:17:33;28.40;;;15.45;;
75793;SDS011;64418;47.536;19.074;2024-01-06T03:19:59;31.00;;;14.67;;
75793;SDS011;64418;47.536;19.074;2024-01-06T03:22:25;26.17;;;14.73;;
75793;SDS011;64418;47.536;19.074;2024-01-06T03:24:51;27.15;;;14.95;;
75793;SDS011;64418;47.536;19.074;2024-01-06T03:27:17;25.98;;;14.35;;
75793;SDS011;64418;47.536;19.074;2024-01-06T03:29:42;26.40;;;13.77;;
75793;SDS011;64418;47.536;19.074;2024-01-06T03:32:11;24.50;;;14.98;;
75793;SDS011;64418;47.536;19.074;2024-01-06T03:34:37;25.00;;;14.73;;
75793;SDS011;64418;47.536;19.074;2024-01-06T03:37:03;27.15;;;15.00;;
75793;SDS011;64418;47.536;19.074;2024-01-06T03:39:29;23.93;;;13.53;;
75793;SDS011;64418;47.536;19.074;2024-01-06T03:41:55;25.17;;;13.77;;
75793;SDS011;64418;47.536;19.074;2024-01-06T03:44:21;27.00;;;14.25;;
75793;SDS011;64418;47.536;19.074;2024-01-06T03:46:47;24.77;;;13.17;;
75793;SDS011;64418;47.536;19.074;2024-01-06T03:49:15;26.03;;;15.13;;
75793;SDS011;64418;47.536;19.074;2024-01-06T03:51:40;28.42;;;14.20;;
75793;SDS011;64418;47.536;19.074;2024-01-06T03:54:06;22.98;;;13.43;;
75793;SDS011;64418;47.536;19.074;2024-01-06T03:56:32;25.47;;;12.73;;
75793;SDS011;64418;47.536;19.074;2024-01-06T03:58:59;25.67;;;14.27;;
75793;SDS011;64418;47.536;19.074;2024-01-06T04:01:25;27.75;;;13.80;;
75793;SDS011;64418;47.536;19.074;2024-01-06T04:03:51;26.60;;;14.48;;
75793;SDS011;64418;47.536;19.074;2024-01-06T04:06:19;27.80;;;14.25;;
75793;SDS011;64418;47.536;19.074;2024-01-06T04:08:45;24.60;;;14.07;;
75793;SDS011;64418;47.536;19.074;2024-01-06T04:11:11;23.98;;;13.93;;
75793;SDS011;64418;47.536;19.074;2024-01-06T04:13:37;23.25;;;13.35;;
75793;SDS011;64418;47.536;19.074;2024-01-06T04:16:03;28.92;;;14.10;;
75793;SDS011;64418;47.536;19.074;2024-01-06T04:18:29;23.00;;;14.80;;
75793;SDS011;64418;47.536;19.074;2024-01-06T04:20:56;21.67;;;13.18;;
75793;SDS011;64418;47.536;19.074;2024-01-06T04:23:24;22.60;;;13.70;;
75793;SDS011;64418;47.536;19.074;2024-01-06T04:25:53;22.95;;;13.20;;
75793;SDS011;64418;47.536;19.074;2024-01-06T04:28:22;25.15;;;14.13;;
75793;SDS011;64418;47.536;19.074;2024-01-06T04:30:48;26.47;;;14.57;;
75793;SDS011;64418;47.536;19.074;2024-01-06T04:33:14;24.30;;;13.07;;
75793;SDS011;64418;47.536;19.074;2024-01-06T04:35:40;24.35;;;14.05;;
75793;SDS011;64418;47.536;19.074;2024-01-06T04:38:06;25.75;;;14.10;;
75793;SDS011;64418;47.536;19.074;2024-01-06T04:40:33;25.60;;;14.83;;
75793;SDS011;64418;47.536;19.074;2024-01-06T04:42:59;23.67;;;13.50;;
75793;SDS011;64418;47.536;19.074;2024-01-06T04:45:25;26.70;;;14.02;;
75793;SDS011;64418;47.536;19.074;2024-01-06T04:47:51;26.87;;;14.52;;
75793;SDS011;64418;47.536;19.074;2024-01-06T04:50:17;26.97;;;14.03;;
75793;SDS011;64418;47.536;19.074;2024-01-06T04:52:44;23.90;;;14.25;;
75793;SDS011;64418;47.536;19.074;2024-01-06T04:55:10;26.17;;;14.50;;
75793;SDS011;64418;47.536;19.074;2024-01-06T04:57:37;26.98;;;15.98;;
75793;SDS011;64418;47.536;19.074;2024-01-06T05:00:04;26.37;;;14.73;;
75793;SDS011;64418;47.536;19.074;2024-01-06T05:02:30;27.00;;;14.73;;
75793;SDS011;64418;47.536;19.074;2024-01-06T05:04:57;26.75;;;13.32;;
75793;SDS011;64418;47.536;19.074;2024-01-06T05:07:23;25.25;;;14.57;;
75793;SDS011;64418;47.536;19.074;2024-01-06T05:09:49;23.27;;;14.00;;
75793;SDS011;64418;47.536;19.074;2024-01-06T05:12:14;24.95;;;14.18;;
75793;SDS011;64418;47.536;19.074;2024-01-06T05:14:42;23.38;;;13.70;;
75793;SDS011;64418;47.536;19.074;2024-01-06T05:17:07;23.30;;;13.63;;
75793;SDS011;64418;47.536;19.074;2024-01-06T05:19:33;23.10;;;13.57;;
75793;SDS011;64418;47.536;19.074;2024-01-06T05:21:59;27.92;;;14.30;;
75793;SDS011;64418;47.536;19.074;2024-01-06T05:24:25;24.07;;;14.00;;
75793;SDS011;64418;47.536;19.074;2024-01-06T05:26:51;25.95;;;14.68;;
75793;SDS011;64418;47.536;19.074;2024-01-06T05:29:17;27.37;;;14.38;;
75793;SDS011;64418;47.536;19.074;2024-01-06T05:31:45;27.45;;;14.77;;
75793;SDS011;64418;47.536;19.074;2024-01-06T05:34:11;23.00;;;13.80;;
75793;SDS011;64418;47.536;19.074;2024-01-06T05:36:37;26.63;;;14.57;;
75793;SDS011;64418;47.536;19.074;2024-01-06T05:39:02;24.67;;;14.13;;
75793;SDS011;64418;47.536;19.074;2024-01-06T05:41:29;23.80;;;13.15;;
75793;SDS011;64418;47.536;19.074;2024-01-06T05:43:55;24.10;;;13.65;;
75793;SDS011;64418;47.536;19.074;2024-01-06T05:46:21;23.73;;;13.83;;
75793;SDS011;64418;47.536;19.074;2024-01-06T05:48:49;25.77;;;14.45;;
75793;SDS011;64418;47.536;19.074;2024-01-06T05:51:15;29.30;;;14.57;;
75793;SDS011;64418;47.536;19.074;2024-01-06T05:53:41;25.70;;;14.50;;
75793;SDS011;64418;47.536;19.074;2024-01-06T05:56:07;28.77;;;14.77;;
75793;SDS011;64418;47.536;19.074;2024-01-06T05:58:34;26.02;;;13.85;;
75793;SDS011;64418;47.536;19.074;2024-01-06T06:00:59;23.35;;;13.85;;
75793;SDS011;64418;47.536;19.074;2024-01-06T06:03:29;25.47;;;13.07;;
75793;SDS011;64418;47.536;19.074;2024-01-06T06:05:57;21.23;;;13.17;;
75793;SDS011;64418;47.536;19.074;2024-01-06T06:08:23;23.83;;;12.70;;
75793;SDS011;64418;47.536;19.074;2024-01-06T06:10:49;23.87;;;13.55;;
75793;SDS011;64418;47.536;19.074;2024-01-06T06:13:15;25.88;;;14.32;;
75793;SDS011;64418;47.536;19.074;2024-01-06T06:15:41;21.98;;;13.60;;
75793;SDS011;64418;47.536;19.074;2024-01-06T06:18:07;23.93;;;13.00;;
75793;SDS011;64418;47.536;19.074;2024-01-06T06:20:33;24.58;;;14.13;;
75793;SDS011;64418;47.536;19.074;2024-01-06T06:23:02;26.23;;;14.07;;
75793;SDS011;64418;47.536;19.074;2024-01-06T06:25:28;25.10;;;13.85;;
75793;SDS011;64418;47.536;19.074;2024-01-06T06:27:54;25.17;;;13.40;;
75793;SDS011;64418;47.536;19.074;2024-01-06T06:30:20;24.67;;;14.35;;
75793;SDS011;64418;47.536;19.074;2024-01-06T06:32:46;24.63;;;13.55;;
75793;SDS011;64418;47.536;19.074;2024-01-06T06:35:13;24.10;;;13.73;;
75793;SDS011;64418;47.536;19.074;2024-01-06T06:37:39;28.80;;;14.10;;
75793;SDS011;64418;47.536;19.074;2024-01-06T06:40:07;25.93;;;14.00;;
75793;SDS011;64418;47.536;19.074;2024-01-06T06:42:33;24.77;;;14.05;;
75793;SDS011;64418;47.536;19.074;2024-01-06T06:44:59;22.83;;;14.05;;
75793;SDS011;64418;47.536;19.074;2024-01-06T06:47:25;24.63;;;14.60;;
75793;SDS011;64418;47.536;19.074;2024-01-06T06:49:51;25.62;;;14.23;;
75793;SDS011;64418;47.536;19.074;2024-01-06T06:52:17;26.15;;;12.77;;
75793;SDS011;64418;47.536;19.074;2024-01-06T06:54:43;25.07;;;12.87;;
75793;SDS011;64418;47.536;19.074;2024-01-06T06:57:10;24.52;;;13.68;;
75793;SDS011;64418;47.536;19.074;2024-01-06T06:59:36;25.02;;;13.60;;
75793;SDS011;64418;47.536;19.074;2024-01-06T07:02:02;26.47;;;14.00;;
75793;SDS011;64418;47.536;19.074;2024-01-06T07:04:28;24.80;;;13.53;;
75793;SDS011;64418;47.536;19.074;2024-01-06T07:06:54;25.95;;;13.52;;
75793;SDS011;64418;47.536;19.074;2024-01-06T07:09:19;23.40;;;12.93;;
75793;SDS011;64418;47.536;19.074;2024-01-06T07:11:45;22.83;;;12.50;;
75793;SDS011;64418;47.536;19.074;2024-01-06T07:14:13;21.12;;;12.15;;
75793;SDS011;64418;47.536;19.074;2024-01-06T07:16:39;22.85;;;12.55;;
75793;SDS011;64418;47.536;19.074;2024-01-06T07:19:05;20.10;;;12.40;;
75793;SDS011;64418;47.536;19.074;2024-01-06T07:21:31;20.58;;;12.43;;
75793;SDS011;64418;47.536;19.074;2024-01-06T07:23:57;20.85;;;12.40;;
75793;SDS011;64418;47.536;19.074;2024-01-06T07:26:23;19.62;;;12.07;;
75793;SDS011;64418;47.536;19.074;2024-01-06T07:28:49;20.13;;;11.47;;
75793;SDS011;64418;47.536;19.074;2024-01-06T07:31:17;20.52;;;13.77;;
75793;SDS011;64418;47.536;19.074;2024-01-06T07:33:43;24.52;;;13.32;;
75793;SDS011;64418;47.536;19.074;2024-01-06T07:36:09;20.60;;;11.70;;
75793;SDS011;64418;47.536;19.074;2024-01-06T07:38:35;25.50;;;12.90;;
75793;SDS011;64418;47.536;19.074;2024-01-06T07:41:00;24.15;;;12.07;;
75793;SDS011;64418;47.536;19.074;2024-01-06T07:43:27;22.75;;;12.30;;
75793;SDS011;64418;47.536;19.074;2024-01-06T07:45:53;24.42;;;12.32;;
75793;SDS011;64418;47.536;19.074;2024-01-06T07:48:21;18.20;;;10.67;;
75793;SDS011;64418;47.536;19.074;2024-01-06T07:50:47;21.75;;;11.48;;
75793;SDS011;64418;47.536;19.074;2024-01-06T07:53:13;21.52;;;11.70;;
75793;SDS011;64418;47.536;19.074;2024-01-06T07:55:38;24.05;;;12.30;;
75793;SDS011;64418;47.536;19.074;2024-01-06T07:58:04;20.40;;;12.33;;
75793;SDS011;64418;47.536;19.074;2024-01-06T08:00:30;20.25;;;11.65;;
75793;SDS011;64418;47.536;19.074;2024-01-06T08:02:56;20.98;;;10.82;;
75793;SDS011;64418;47.536;19.074;2024-01-06T08:05:25;22.50;;;11.30;;
75793;SDS011;64418;47.536;19.074;2024-01-06T08:07:50;25.15;;;11.98;;
75793;SDS011;64418;47.536;19.074;2024-01-06T08:10:17;23.02;;;11.63;;
75793;SDS011;64418;47.536;19.074;2024-01-06T08:12:43;21.35;;;11.93;;
75793;SDS011;64418;47.536;19.074;2024-01-06T08:15:09;22.57;;;11.83;;
75793;SDS011;64418;47.536;19.074;2024-01-06T08:17:35;19.80;;;11.80;;
75793;SDS011;64418;47.536;19.074;2024-01-06T08:20:01;19.12;;;11.18;;
75793;SDS011;64418;47.536;19.074;2024-01-06T08:22:30;21.27;;;11.38;;
75793;SDS011;64418;47.536;19.074;2024-01-06T08:24:57;20.80;;;10.87;;
75793;SDS011;64418;47.536;19.074;2024-01-06T08:27:25;18.87;;;11.43;;
75793;SDS011;64418;47.536;19.074;2024-01-06T08:29:51;21.15;;;11.73;;
75793;SDS011;64418;47.536;19.074;2024-01-06T08:32:17;21.08;;;11.10;;
75793;SDS011;64418;47.536;19.074;2024-01-06T08:34:43;18.13;;;10.53;;
75793;SDS011;64418;47.536;19.074;2024-01-06T08:37:09;19.00;;;10.57;;
75793;SDS011;64418;47.536;19.074;2024-01-06T08:39:37;21.20;;;12.37;;
75793;SDS011;64418;47.536;19.074;2024-01-06T08:42:03;19.77;;;11.40;;
75793;SDS011;64418;47.536;19.074;2024-01-06T08:44:30;18.57;;;10.87;;
75793;SDS011;64418;47.536;19.074;2024-01-06T08:46:56;21.73;;;10.98;;
75793;SDS011;64418;47.536;19.074;2024-01-06T08:49:23;18.30;;;10.82;;
75793;SDS011;64418;47.536;19.074;2024-01-06T08:51:49;22.92;;;12.18;;
75793;SDS011;64418;47.536;19.074;2024-01-06T08:54:15;24.25;;;12.30;;
75793;SDS011;64418;47.536;19.074;2024-01-06T08:56:43;17.13;;;10.83;;
75793;SDS011;64418;47.536;19.074;2024-01-06T08:59:09;18.52;;;10.13;;
75793;SDS011;64418;47.536;19.074;2024-01-06T09:01:36;24.33;;;11.10;;
75793;SDS011;64418;47.536;19.074;2024-01-06T09:04:04;20.12;;;10.75;;
75793;SDS011;64418;47.536;19.074;2024-01-06T09:06:30;17.20;;;10.70;;
75793;SDS011;64418;47.536;19.074;2024-01-06T09:08:57;20.20;;;10.97;;
75793;SDS011;64418;47.536;19.074;2024-01-06T09:11:24;19.75;;;10.68;;
75793;SDS011;64418;47.536;19.074;2024-01-06T09:13:54;16.95;;;9.55;;
75793;SDS011;64418;47.536;19.074;2024-01-06T09:16:21;18.42;;;10.45;;
75793;SDS011;64418;47.536;19.074;2024-01-06T09:18:51;17.45;;;10.68;;
75793;SDS011;64418;47.536;19.074;2024-01-06T09:21:19;18.17;;;10.20;;
75793;SDS011;64418;47.536;19.074;2024-01-06T09:23:46;20.08;;;10.65;;
75793;SDS011;64418;47.536;19.074;2024-01-06T09:26:13;17.67;;;10.35;;
75793;SDS011;64418;47.536;19.074;2024-01-06T09:28:39;16.05;;;10.02;;
75793;SDS011;64418;47.536;19.074;2024-01-06T09:31:13;19.40;;;10.57;;
75793;SDS011;64418;47.536;19.074;2024-01-06T09:33:47;17.37;;;10.00;;
75793;SDS011;64418;47.536;19.074;2024-01-06T09:36:14;18.52;;;10.68;;
75793;SDS011;64418;47.536;19.074;2024-01-06T09:38:44;17.33;;;9.98;;
75793;SDS011;64418;47.536;19.074;2024-01-06T09:43:46;14.40;;;8.83;;
75793;SDS011;64418;47.536;19.074;2024-01-06T09:46:14;16.60;;;9.75;;
75793;SDS011;64418;47.536;19.074;2024-01-06T09:48:51;16.98;;;9.00;;
75793;SDS011;64418;47.536;19.074;2024-01-06T09:51:31;18.50;;;9.55;;
75793;SDS011;64418;47.536;19.074;2024-01-06T09:54:03;15.73;;;9.82;;
75793;SDS011;64418;47.536;19.074;2024-01-06T09:56:35;14.33;;;8.57;;
75793;SDS011;64418;47.536;19.074;2024-01-06T09:59:04;15.63;;;9.43;;
75793;SDS011;64418;47.536;19.074;2024-01-06T10:06:59;14.77;;;8.98;;
75793;SDS011;64418;47.536;19.074;2024-01-06T10:09:41;16.03;;;8.77;;
75793;SDS011;64418;47.536;19.074;2024-01-06T10:13:16;19.20;;;9.70;;
75793;SDS011;64418;47.536;19.074;2024-01-06T10:15:51;16.75;;;9.65;;
75793;SDS011;64418;47.536;19.074;2024-01-06T10:18:37;14.57;;;9.32;;
75793;SDS011;64418;47.536;19.074;2024-01-06T10:21:14;17.80;;;10.18;;
75793;SDS011;64418;47.536;19.074;2024-01-06T10:24:05;17.50;;;9.40;;
75793;SDS011;64418;47.536;19.074;2024-01-06T10:26:37;15.43;;;9.02;;
75793;SDS011;64418;47.536;19.074;2024-01-06T10:29:05;16.08;;;9.57;;
75793;SDS011;64418;47.536;19.074;2024-01-06T10:31:32;15.77;;;8.95;;
75793;SDS011;64418;47.536;19.074;2024-01-06T10:34:00;15.43;;;9.18;;
75793;SDS011;64418;47.536;19.074;2024-01-06T10:36:26;19.30;;;9.47;;
75793;SDS011;64418;47.536;19.074;2024-01-06T10:38:53;14.85;;;9.32;;
75793;SDS011;64418;47.536;19.074;2024-01-06T10:44:18;16.85;;;8.80;;
75793;SDS011;64418;47.536;19.074;2024-01-06T10:46:52;20.20;;;9.98;;
75793;SDS011;64418;47.536;19.074;2024-01-06T10:49:20;17.10;;;9.43;;
75793;SDS011;64418;47.536;19.074;2024-01-06T10:51:49;18.42;;;10.02;;
75793;SDS011;64418;47.536;19.074;2024-01-06T10:54:17;11.35;;;8.20;;
75793;SDS011;64418;47.536;19.074;2024-01-06T10:56:49;15.82;;;8.93;;
75793;SDS011;64418;47.536;19.074;2024-01-06T10:59:18;17.87;;;10.63;;
75793;SDS011;64418;47.536;19.074;2024-01-06T11:01:47;17.37;;;9.53;;
75793;SDS011;64418;47.536;19.074;2024-01-06T11:04:18;16.73;;;9.57;;
75793;SDS011;64418;47.536;19.074;2024-01-06T11:06:46;22.33;;;9.93;;
75793;SDS011;64418;47.536;19.074;2024-01-06T11:09:16;18.80;;;9.50;;
75793;SDS011;64418;47.536;19.074;2024-01-06T11:11:46;18.95;;;10.07;;
75793;SDS011;64418;47.536;19.074;2024-01-06T11:14:19;17.30;;;9.50;;
75793;SDS011;64418;47.536;19.074;2024-01-06T11:16:47;17.80;;;9.43;;
75793;SDS011;64418;47.536;19.074;2024-01-06T11:22:19;19.10;;;9.88;;
75793;SDS011;64418;47.536;19.074;2024-01-06T11:24:48;17.90;;;9.77;;
75793;SDS011;64418;47.536;19.074;2024-01-06T11:27:23;18.80;;;10.27;;
75793;SDS011;64418;47.536;19.074;2024-01-06T11:29:51;17.23;;;9.48;;
75793;SDS011;64418;47.536;19.074;2024-01-06T11:32:18;20.05;;;10.48;;
75793;SDS011;64418;47.536;19.074;2024-01-06T11:34:47;15.68;;;9.90;;
75793;SDS011;64418;47.536;19.074;2024-01-06T11:37:13;18.73;;;9.85;;
75793;SDS011;64418;47.536;19.074;2024-01-06T11:39:40;18.60;;;10.43;;
75793;SDS011;64418;47.536;19.074;2024-01-06T11:42:09;18.87;;;10.27;;
75793;SDS011;64418;47.536;19.074;2024-01-06T11:44:37;18.52;;;9.73;;
75793;SDS011;64418;47.536;19.074;2024-01-06T11:47:04;20.27;;;10.07;;
75793;SDS011;64418;47.536;19.074;2024-01-06T11:49:31;18.02;;;10.48;;
75793;SDS011;64418;47.536;19.074;2024-01-06T11:52:00;17.33;;;10.87;;
75793;SDS011;64418;47.536;19.074;2024-01-06T11:54:26;17.25;;;10.55;;
75793;SDS011;64418;47.536;19.074;2024-01-06T11:56:53;19.90;;;11.25;;
75793;SDS011;64418;47.536;19.074;2024-01-06T11:59:19;19.98;;;10.93;;
75793;SDS011;64418;47.536;19.074;2024-01-06T12:01:46;20.47;;;10.53;;
75793;SDS011;64418;47.536;19.074;2024-01-06T12:04:13;18.65;;;10.73;;
75793;SDS011;64418;47.536;19.074;2024-01-06T12:06:41;21.35;;;11.85;;
75793;SDS011;64418;47.536;19.074;2024-01-06T12:09:07;20.55;;;12.18;;
75793;SDS011;64418;47.536;19.074;2024-01-06T12:11:35;22.70;;;12.02;;
75793;SDS011;64418;47.536;19.074;2024-01-06T12:14:01;21.60;;;12.67;;
75793;SDS011;64418;47.536;19.074;2024-01-06T12:16:27;20.05;;;12.27;;
75793;SDS011;64418;47.536;19.074;2024-01-06T12:18:55;20.20;;;12.10;;
75793;SDS011;64418;47.536;19.074;2024-01-06T12:21:21;22.73;;;11.47;;
75793;SDS011;64418;47.536;19.074;2024-01-06T12:23:49;21.65;;;12.23;;
75793;SDS011;64418;47.536;19.074;2024-01-06T12:26:16;20.85;;;12.52;;
75793;SDS011;64418;47.536;19.074;2024-01-06T12:28:44;20.12;;;11.45;;
75793;SDS011;64418;47.536;19.074;2024-01-06T12:31:10;21.37;;;12.35;;
75793;SDS011;64418;47.536;19.074;2024-01-06T12:33:36;21.40;;;11.97;;
75793;SDS011;64418;47.536;19.074;2024-01-06T12:36:06;23.58;;;12.35;;
75793;SDS011;64418;47.536;19.074;2024-01-06T12:38:34;21.08;;;12.63;;
75793;SDS011;64418;47.536;19.074;2024-01-06T12:41:01;19.73;;;11.68;;
75793;SDS011;64418;47.536;19.074;2024-01-06T12:43:29;22.08;;;11.77;;
75793;SDS011;64418;47.536;19.074;2024-01-06T12:45:56;18.87;;;11.23;;
75793;SDS011;64418;47.536;19.074;2024-01-06T12:48:22;20.00;;;12.00;;
75793;SDS011;64418;47.536;19.074;2024-01-06T12:50:48;25.35;;;12.02;;
75793;SDS011;64418;47.536;19.074;2024-01-06T12:53:16;21.12;;;11.82;;
75793;SDS011;64418;47.536;19.074;2024-01-06T12:55:42;19.65;;;11.80;;
75793;SDS011;64418;47.536;19.074;2024-01-06T12:58:08;20.67;;;11.10;;
75793;SDS011;64418;47.536;19.074;2024-01-06T13:00:34;18.83;;;11.85;;
75793;SDS011;64418;47.536;19.074;2024-01-06T13:03:00;21.65;;;12.50;;
75793;SDS011;64418;47.536;19.074;2024-01-06T13:05:26;21.98;;;12.00;;
75793;SDS011;64418;47.536;19.074;2024-01-06T13:07:52;23.80;;;12.87;;
75793;SDS011;64418;47.536;19.074;2024-01-06T13:10:21;20.33;;;12.32;;
75793;SDS011;64418;47.536;19.074;2024-01-06T13:12:47;23.42;;;12.48;;
75793;SDS011;64418;47.536;19.074;2024-01-06T13:15:13;21.92;;;13.18;;
75793;SDS011;64418;47.536;19.074;2024-01-06T13:17:39;26.83;;;13.57;;
75793;SDS011;64418;47.536;19.074;2024-01-06T13:20:05;23.20;;;13.20;;
75793;SDS011;64418;47.536;19.074;2024-01-06T13:22:32;24.40;;;13.23;;
75793;SDS011;64418;47.536;19.074;2024-01-06T13:24:59;25.43;;;14.40;;
75793;SDS011;64418;47.536;19.074;2024-01-06T13:27:27;21.42;;;13.05;;
75793;SDS011;64418;47.536;19.074;2024-01-06T13:29:53;24.50;;;14.15;;
75793;SDS011;64418;47.536;19.074;2024-01-06T13:32:22;26.92;;;14.27;;
75793;SDS011;64418;47.536;19.074;2024-01-06T13:34:48;25.53;;;14.37;;
75793;SDS011;64418;47.536;19.074;2024-01-06T13:37:14;24.95;;;14.13;;
75793;SDS011;64418;47.536;19.074;2024-01-06T13:39:40;25.83;;;14.75;;
75793;SDS011;64418;47.536;19.074;2024-01-06T13:42:06;25.77;;;14.40;;
75793;SDS011;64418;47.536;19.074;2024-01-06T13:44:33;24.05;;;13.95;;
75793;SDS011;64418;47.536;19.074;2024-01-06T13:46:59;24.85;;;13.80;;
75793;SDS011;64418;47.536;19.074;2024-01-06T13:49:25;24.23;;;13.50;;
75793;SDS011;64418;47.536;19.074;2024-01-06T13:51:53;23.70;;;13.90;;
75793;SDS011;64418;47.536;19.074;2024-01-06T13:54:19;26.42;;;14.20;;
75793;SDS011;64418;47.536;19.074;2024-01-06T13:56:45;23.23;;;14.00;;
75793;SDS011;64418;47.536;19.074;2024-01-06T13:59:11;24.40;;;13.17;;
75793;SDS011;64418;47.536;19.074;2024-01-06T14:01:41;27.83;;;14.35;;
75793;SDS011;64418;47.536;19.074;2024-01-06T14:04:07;26.52;;;14.25;;
75793;SDS011;64418;47.536;19.074;2024-01-06T14:06:33;28.42;;;14.13;;
75793;SDS011;64418;47.536;19.074;2024-01-06T14:08:59;25.57;;;13.10;;
75793;SDS011;64418;47.536;19.074;2024-01-06T14:11:26;28.77;;;14.87;;
75793;SDS011;64418;47.536;19.074;2024-01-06T14:13:52;25.60;;;14.90;;
75793;SDS011;64418;47.536;19.074;2024-01-06T14:16:18;28.62;;;14.98;;
75793;SDS011;64418;47.536;19.074;2024-01-06T14:18:45;29.92;;;13.95;;
75793;SDS011;64418;47.536;19.074;2024-01-06T14:21:11;26.00;;;14.50;;
75793;SDS011;64418;47.536;19.074;2024-01-06T14:23:40;28.17;;;14.45;;
75793;SDS011;64418;47.536;19.074;2024-01-06T14:26:06;28.62;;;14.52;;